createdAt,value
2023-01-29T00:00:10.316Z,85.66
2023-01-29T00:05:26.438Z,85.03
2023-01-29T00:10:27.738Z,85.44
2023-01-29T00:15:28.093Z,85.07
2023-01-29T00:20:27.246Z,84.70
2023-01-29T00:25:26.389Z,84.74
2023-01-29T00:30:25.259Z,84.59
2023-01-29T00:35:25.656Z,84.49
2023-01-29T00:40:28.256Z,84.53
2023-01-29T00:45:29.443Z,84.49
2023-01-29T00:50:30.155Z,84.17
2023-01-29T00:55:30.310Z,84.21
2023-01-29T01:00:29.252Z,84.06
2023-01-29T01:05:30.201Z,84.11
2023-01-29T01:10:31.860Z,84.04
2023-01-29T01:15:33.237Z,83.88
2023-01-29T01:20:36.054Z,84.43
2023-01-29T01:25:37.009Z,84.96
2023-01-29T01:30:36.029Z,85.27
2023-01-29T01:35:36.338Z,85.93
2023-01-29T01:40:36.969Z,85.38
2023-01-29T01:45:37.741Z,85.25
2023-01-29T01:50:44.604Z,87.02
2023-01-29T01:55:52.059Z,87.54
2023-01-29T02:00:52.135Z,87.21
2023-01-29T02:06:12.714Z,87.19
2023-01-29T02:11:12.128Z,88.39
2023-01-29T02:16:11.650Z,89.03
2023-01-29T02:21:29.334Z,89.84
2023-01-29T02:26:55.261Z,90.67
2023-01-29T02:32:07.820Z,90.79
2023-01-29T02:37:13.944Z,93.33
2023-01-29T02:42:18.335Z,91.03
2023-01-29T02:47:23.932Z,90.73
2023-01-29T02:52:27.852Z,91.26
2023-01-29T02:57:33.188Z,89.75
2023-01-29T03:02:39.529Z,88.85
2023-01-29T03:07:42.929Z,88.68
2023-01-29T03:12:47.375Z,88.77
2023-01-29T03:17:57.677Z,89.27
2023-01-29T03:23:01.543Z,89.79
2023-01-29T03:28:20.623Z,89.77
2023-01-29T03:33:25.300Z,89.46
2023-01-29T03:38:29.784Z,92.12
2023-01-29T03:43:35.859Z,91.13
2023-01-29T03:48:41.451Z,90.59
2023-01-29T03:53:45.786Z,91.27
2023-01-29T03:58:50.343Z,91.59
2023-01-29T04:03:57.148Z,91.46
2023-01-29T04:09:00.744Z,91.90
2023-01-29T04:13:59.874Z,90.11
2023-01-29T04:19:01.563Z,90.91
2023-01-29T04:24:08.737Z,89.92
2023-01-29T04:29:26.146Z,89.57
2023-01-29T04:34:38.317Z,90.02
2023-01-29T04:39:45.310Z,91.49
2023-01-29T04:44:53.040Z,90.66
2023-01-29T04:50:03.960Z,89.14
2023-01-29T04:55:07.640Z,88.57
2023-01-29T05:00:13.451Z,88.33
2023-01-29T05:05:16.104Z,87.81
2023-01-29T05:10:17.291Z,86.87
2023-01-29T05:15:21.490Z,86.10
2023-01-29T05:20:22.547Z,85.15
2023-01-29T05:25:24.265Z,84.68
2023-01-29T05:30:23.196Z,85.82
2023-01-29T05:35:23.414Z,87.63
2023-01-29T05:40:22.383Z,87.07
2023-01-29T05:45:21.291Z,88.12
2023-01-29T05:50:20.455Z,86.16
2023-01-29T05:55:20.897Z,85.09
2023-01-29T06:00:20.776Z,85.55
2023-01-29T06:05:19.855Z,85.64
2023-01-29T06:10:21.011Z,86.86
2023-01-29T06:15:20.965Z,86.36
2023-01-29T06:20:20.047Z,85.95
2023-01-29T06:25:20.477Z,85.70
2023-01-29T06:30:20.245Z,86.48
2023-01-29T06:35:19.373Z,85.96
2023-01-29T06:40:18.743Z,87.21
2023-01-29T06:45:19.460Z,87.50
2023-01-29T06:50:19.229Z,87.79
2023-01-29T06:55:18.655Z,88.75
2023-01-29T07:00:20.667Z,87.05
2023-01-29T07:05:19.775Z,86.76
2023-01-29T07:10:19.263Z,86.03
2023-01-29T07:15:21.484Z,85.10
2023-01-29T07:20:22.016Z,84.49
2023-01-29T07:25:21.002Z,83.23
2023-01-29T07:30:26.472Z,83.01
2023-01-29T07:35:27.904Z,82.71
2023-01-29T07:40:27.822Z,82.56
2023-01-29T07:45:28.944Z,82.10
2023-01-29T07:50:29.846Z,82.14
2023-01-29T07:55:29.315Z,81.94
2023-01-29T08:00:33.140Z,80.73
2023-01-29T08:05:32.897Z,80.40
2023-01-29T08:10:32.194Z,80.45
2023-01-29T08:15:33.217Z,80.00
2023-01-29T08:20:32.427Z,78.93
2023-01-29T08:25:31.590Z,78.05
2023-01-29T08:30:35.190Z,77.28
2023-01-29T08:35:34.329Z,77.44
2023-01-29T08:40:35.434Z,77.34
2023-01-29T08:45:38.205Z,78.00
2023-01-29T08:50:37.413Z,78.48
2023-01-29T08:55:39.796Z,77.72
2023-01-29T09:00:40.562Z,77.45
2023-01-29T09:05:40.701Z,77.01
2023-01-29T09:10:39.604Z,76.59
2023-01-29T09:15:39.880Z,76.89
2023-01-29T09:20:39.084Z,77.13
2023-01-29T09:25:38.405Z,76.99
2023-01-29T09:30:38.294Z,77.69
2023-01-29T09:35:41.307Z,77.81
2023-01-29T09:40:51.899Z,78.95
2023-01-29T09:45:57.944Z,78.87
2023-01-29T09:51:01.898Z,79.33
2023-01-29T09:56:04.349Z,79.53
2023-01-29T10:01:13.605Z,79.12
2023-01-29T10:06:29.298Z,79.37
2023-01-29T10:11:39.681Z,81.00
2023-01-29T10:16:51.948Z,81.68
2023-01-29T10:22:27.510Z,81.17
2023-01-29T10:27:33.319Z,79.95
2023-01-29T10:32:33.440Z,79.11
2023-01-29T10:37:40.571Z,80.20
2023-01-29T10:42:47.758Z,79.64
2023-01-29T10:48:06.237Z,81.71
2023-01-29T10:53:27.470Z,82.22
2023-01-29T10:58:35.678Z,81.81
2023-01-29T11:03:35.547Z,80.09
2023-01-29T11:08:41.556Z,79.35
2023-01-29T11:13:46.714Z,80.25
2023-01-29T11:18:54.874Z,79.11
2023-01-29T11:24:07.595Z,78.74
2023-01-29T11:29:06.627Z,79.60
2023-01-29T11:34:14.314Z,78.76
2023-01-29T11:39:20.779Z,78.50
2023-01-29T11:44:28.934Z,78.35
2023-01-29T11:49:34.275Z,78.58
2023-01-29T11:54:40.039Z,78.64
2023-01-29T11:59:42.949Z,78.18
2023-01-29T12:04:42.262Z,77.98
2023-01-29T12:09:42.607Z,78.70
2023-01-29T12:14:41.621Z,78.90
2023-01-29T12:19:47.831Z,78.98
2023-01-29T12:24:55.716Z,78.61
2023-01-29T12:30:05.258Z,77.86
2023-01-29T12:35:12.664Z,77.47
2023-01-29T12:40:38.867Z,77.31
2023-01-29T12:45:39.018Z,77.49
2023-01-29T12:50:39.848Z,77.19
2023-01-29T12:55:45.117Z,76.85
2023-01-29T13:00:48.855Z,77.07
2023-01-29T13:05:51.740Z,77.72
2023-01-29T13:10:56.363Z,78.20
2023-01-29T13:16:00.244Z,78.60
2023-01-29T13:21:03.795Z,78.36
2023-01-29T13:26:07.892Z,78.49
2023-01-29T13:31:22.910Z,78.32
2023-01-29T13:36:27.574Z,78.18
2023-01-29T13:41:47.959Z,78.07
2023-01-29T13:46:53.342Z,77.83
2023-01-29T13:51:54.115Z,78.19
2023-01-29T13:57:02.659Z,78.15
2023-01-29T14:02:23.052Z,78.43
2023-01-29T14:07:51.321Z,77.97
2023-01-29T14:12:56.055Z,77.74
2023-01-29T14:18:01.761Z,77.54
2023-01-29T14:23:04.715Z,77.54
2023-01-29T14:28:14.901Z,77.71
2023-01-29T14:33:29.578Z,77.61
2023-01-29T14:38:30.335Z,77.54
2023-01-29T14:43:33.186Z,77.60
2023-01-29T14:48:50.240Z,77.62
2023-01-29T14:54:00.881Z,77.63
2023-01-29T14:59:16.066Z,77.62
2023-01-29T15:04:21.635Z,78.71
2023-01-29T15:09:36.847Z,80.43
2023-01-29T15:14:43.789Z,80.43
2023-01-29T15:19:45.208Z,80.35
2023-01-29T15:24:45.645Z,79.93
2023-01-29T15:29:50.063Z,79.73
2023-01-29T15:34:50.533Z,79.34
2023-01-29T15:39:53.227Z,79.27
2023-01-29T15:44:56.114Z,79.21
2023-01-29T15:49:57.484Z,79.25
2023-01-29T15:55:02.021Z,79.13
2023-01-29T16:00:04.720Z,79.31
2023-01-29T16:05:17.563Z,79.70
2023-01-29T16:10:20.246Z,79.96
2023-01-29T16:15:32.394Z,79.76
2023-01-29T16:20:38.420Z,79.61
2023-01-29T16:25:40.058Z,79.40
2023-01-29T16:30:41.571Z,78.88
2023-01-29T16:35:41.608Z,78.80
2023-01-29T16:40:42.304Z,79.07
2023-01-29T16:45:42.790Z,81.19
2023-01-29T16:50:54.286Z,82.58
2023-01-29T16:55:56.071Z,83.38
2023-01-29T17:01:00.215Z,82.60
2023-01-29T17:06:00.132Z,84.06
2023-01-29T17:10:59.349Z,85.51
2023-01-29T17:16:04.277Z,85.17
2023-01-29T17:21:03.187Z,85.89
2023-01-29T17:26:02.719Z,85.03
2023-01-29T17:31:06.816Z,84.90
2023-01-29T17:36:06.373Z,84.35
2023-01-29T17:41:08.740Z,85.28
2023-01-29T17:46:13.496Z,85.49
2023-01-29T17:51:15.027Z,86.20
2023-01-29T17:56:17.504Z,87.93
2023-01-29T18:01:18.010Z,89.81
2023-01-29T18:06:25.300Z,88.81
2023-01-29T18:11:24.549Z,90.19
2023-01-29T18:16:28.832Z,92.57
2023-01-29T18:21:27.761Z,90.70
2023-01-29T18:26:26.818Z,89.87
2023-01-29T18:31:27.285Z,89.64
2023-01-29T18:36:26.779Z,88.49
2023-01-29T18:41:26.166Z,87.43
2023-01-29T18:46:26.703Z,87.01
2023-01-29T18:51:25.943Z,85.99
2023-01-29T18:56:25.883Z,85.32
2023-01-29T19:01:27.408Z,84.55
2023-01-29T19:06:37.098Z,83.67
2023-01-29T19:11:36.751Z,83.19
2023-01-29T19:16:40.146Z,82.86
2023-01-29T19:21:39.418Z,82.89
2023-01-29T19:26:38.390Z,82.38
2023-01-29T19:31:38.351Z,82.29
2023-01-29T19:36:39.095Z,82.22
2023-01-29T19:41:38.108Z,82.11
2023-01-29T19:46:37.067Z,81.80
2023-01-29T19:51:41.561Z,81.66
2023-01-29T19:56:47.775Z,81.59
2023-01-29T20:01:46.593Z,81.49
2023-01-29T20:06:50.317Z,81.44
2023-01-29T20:11:56.036Z,81.13
2023-01-29T20:17:00.884Z,80.91
2023-01-29T20:22:01.440Z,80.72
2023-01-29T20:27:00.844Z,80.57
2023-01-29T20:32:00.647Z,80.53
2023-01-29T20:37:01.099Z,80.50
2023-01-29T20:42:00.364Z,81.10
2023-01-29T20:47:01.825Z,80.92
2023-01-29T20:52:03.063Z,81.14
2023-01-29T20:57:04.879Z,81.22
2023-01-29T21:02:03.927Z,81.07
2023-01-29T21:07:04.270Z,80.98
2023-01-29T21:12:05.434Z,81.07
2023-01-29T21:17:04.958Z,81.31
2023-01-29T21:22:05.274Z,81.73
2023-01-29T21:27:04.090Z,81.94
2023-01-29T21:32:04.454Z,81.87
2023-01-29T21:37:04.643Z,82.68
2023-01-29T21:42:20.800Z,81.47
2023-01-29T21:47:19.801Z,82.63
2023-01-29T21:52:20.242Z,82.42
2023-01-29T21:57:33.159Z,83.89
2023-01-29T22:02:32.408Z,84.27
2023-01-29T22:07:32.880Z,83.61
2023-01-29T22:12:31.965Z,83.13
2023-01-29T22:17:31.044Z,83.55
2023-01-29T22:22:29.937Z,83.88
2023-01-29T22:27:30.460Z,83.24
2023-01-29T22:32:30.766Z,82.95
2023-01-29T22:37:32.925Z,83.36
2023-01-29T22:42:40.357Z,84.95
2023-01-29T22:47:42.219Z,84.34
2023-01-29T22:52:43.523Z,84.36
2023-01-29T22:57:43.820Z,82.98
2023-01-29T23:02:43.610Z,83.29
2023-01-29T23:07:42.586Z,83.32
2023-01-29T23:12:41.709Z,83.31
2023-01-29T23:17:41.998Z,83.19
2023-01-29T23:22:40.925Z,82.55
2023-01-29T23:27:39.723Z,82.54
2023-01-29T23:32:38.571Z,84.98
2023-01-29T23:37:38.697Z,87.04
2023-01-29T23:42:37.511Z,89.03
2023-01-29T23:47:36.478Z,87.89
2023-01-29T23:52:35.279Z,87.38
2023-01-29T23:57:35.419Z,86.11
